sensor_id;sensor_type;location;lat;lon;timestamp;P1;durP1;ratioP1;P2;durP2;ratioP2
7523;SDS011;3803;51.666;7.630;2024-02-26T00:00:13;1.50;;;1.40;;
7523;SDS011;3803;51.666;7.630;2024-02-26T00:00:37;1.40;;;1.30;;
7523;SDS011;3803;51.666;7.630;2024-02-26T00:01:01;1.50;;;1.40;;
7523;SDS011;3803;51.666;7.630;2024-02-26T00:01:22;1.58;;;1.38;;
7523;SDS011;3803;51.666;7.630;2024-02-26T00:01:45;1.80;;;1.50;;
7523;SDS011;3803;51.666;7.630;2024-02-26T00:02:06;2.00;;;1.70;;
7523;SDS011;3803;51.666;7.630;2024-02-26T00:02:30;1.80;;;1.60;;
7523;SDS011;3803;51.666;7.630;2024-02-26T00:03:00;1.52;;;1.42;;
7523;SDS011;3803;51.666;7.630;2024-02-26T00:03:27;2.08;;;1.65;;
7523;SDS011;3803;51.666;7.630;2024-02-26T00:03:48;2.00;;;1.80;;
7523;SDS011;3803;51.666;7.630;2024-02-26T00:04:12;2.00;;;1.80;;
7523;SDS011;3803;51.666;7.630;2024-02-26T00:04:39;1.80;;;1.70;;
7523;SDS011;3803;51.666;7.630;2024-02-26T00:05:02;1.83;;;1.63;;
7523;SDS011;3803;51.666;7.630;2024-02-26T00:05:25;2.08;;;1.88;;
7523;SDS011;3803;51.666;7.630;2024-02-26T00:05:45;3.90;;;1.90;;
7523;SDS011;3803;51.666;7.630;2024-02-26T00:06:08;3.85;;;1.80;;
7523;SDS011;3803;51.666;7.630;2024-02-26T00:06:32;3.50;;;1.50;;
7523;SDS011;3803;51.666;7.630;2024-02-26T00:06:53;1.60;;;1.50;;
7523;SDS011;3803;51.666;7.630;2024-02-26T00:07:15;1.63;;;1.52;;
7523;SDS011;3803;51.666;7.630;2024-02-26T00:07:38;3.03;;;1.85;;
7523;SDS011;3803;51.666;7.630;2024-02-26T00:08:04;3.58;;;1.98;;
7523;SDS011;3803;51.666;7.630;2024-02-26T00:08:25;3.03;;;1.80;;
7523;SDS011;3803;51.666;7.630;2024-02-26T00:10:16;1.90;;;1.63;;
7523;SDS011;3803;51.666;7.630;2024-02-26T00:10:59;2.47;;;1.80;;
7523;SDS011;3803;51.666;7.630;2024-02-26T00:11:41;2.28;;;1.70;;
7523;SDS011;3803;51.666;7.630;2024-02-26T00:12:23;1.50;;;1.40;;
7523;SDS011;3803;51.666;7.630;2024-02-26T00:13:04;1.70;;;1.60;;
7523;SDS011;3803;51.666;7.630;2024-02-26T00:13:28;2.60;;;1.70;;
7523;SDS011;3803;51.666;7.630;2024-02-26T00:13:53;3.28;;;1.75;;
7523;SDS011;3803;51.666;7.630;2024-02-26T00:14:14;3.78;;;1.80;;
7523;SDS011;3803;51.666;7.630;2024-02-26T00:14:40;2.80;;;1.80;;
7523;SDS011;3803;51.666;7.630;2024-02-26T00:15:05;2.28;;;1.77;;
7523;SDS011;3803;51.666;7.630;2024-02-26T00:15:27;1.83;;;1.60;;
7523;SDS011;3803;51.666;7.630;2024-02-26T00:15:48;2.28;;;1.40;;
7523;SDS011;3803;51.666;7.630;2024-02-26T00:16:14;2.30;;;1.50;;
7523;SDS011;3803;51.666;7.630;2024-02-26T00:16:40;1.80;;;1.58;;
7523;SDS011;3803;51.666;7.630;2024-02-26T00:17:02;2.20;;;2.00;;
7523;SDS011;3803;51.666;7.630;2024-02-26T00:17:23;2.67;;;2.20;;
7523;SDS011;3803;51.666;7.630;2024-02-26T00:17:46;2.45;;;1.90;;
7523;SDS011;3803;51.666;7.630;2024-02-26T00:18:10;1.83;;;1.70;;
7523;SDS011;3803;51.666;7.630;2024-02-26T00:18:33;1.98;;;1.73;;
7523;SDS011;3803;51.666;7.630;2024-02-26T00:18:54;1.90;;;1.60;;
7523;SDS011;3803;51.666;7.630;2024-02-26T00:19:16;2.10;;;1.60;;
7523;SDS011;3803;51.666;7.630;2024-02-26T00:19:42;2.00;;;1.70;;
7523;SDS011;3803;51.666;7.630;2024-02-26T00:20:05;2.00;;;1.70;;
7523;SDS011;3803;51.666;7.630;2024-02-26T00:20:33;1.60;;;1.40;;
7523;SDS011;3803;51.666;7.630;2024-02-26T00:20:54;1.60;;;1.50;;
7523;SDS011;3803;51.666;7.630;2024-02-26T00:21:24;1.77;;;1.65;;
7523;SDS011;3803;51.666;7.630;2024-02-26T00:21:47;2.15;;;1.77;;
7523;SDS011;3803;51.666;7.630;2024-02-26T00:22:13;2.10;;;1.80;;
7523;SDS011;3803;51.666;7.630;2024-02-26T00:22:38;2.70;;;1.60;;
7523;SDS011;3803;51.666;7.630;2024-02-26T00:22:59;3.42;;;1.63;;
7523;SDS011;3803;51.666;7.630;2024-02-26T00:23:20;3.30;;;1.55;;
7523;SDS011;3803;51.666;7.630;2024-02-26T00:23:41;2.20;;;1.60;;
7523;SDS011;3803;51.666;7.630;2024-02-26T00:24:07;1.70;;;1.60;;
7523;SDS011;3803;51.666;7.630;2024-02-26T00:24:28;4.18;;;1.70;;
7523;SDS011;3803;51.666;7.630;2024-02-26T00:24:48;4.07;;;1.65;;
7523;SDS011;3803;51.666;7.630;2024-02-26T00:25:09;3.75;;;1.48;;
7523;SDS011;3803;51.666;7.630;2024-02-26T00:25:35;1.30;;;1.20;;
7523;SDS011;3803;51.666;7.630;2024-02-26T00:25:57;1.70;;;1.60;;
7523;SDS011;3803;51.666;7.630;2024-02-26T00:26:22;3.60;;;1.70;;
7523;SDS011;3803;51.666;7.630;2024-02-26T00:26:43;3.60;;;1.60;;
7523;SDS011;3803;51.666;7.630;2024-02-26T00:27:04;3.67;;;1.53;;
7523;SDS011;3803;51.666;7.630;2024-02-26T00:27:25;2.87;;;1.60;;
7523;SDS011;3803;51.666;7.630;2024-02-26T00:27:48;2.78;;;1.60;;
7523;SDS011;3803;51.666;7.630;2024-02-26T00:28:11;1.95;;;1.40;;
7523;SDS011;3803;51.666;7.630;2024-02-26T00:28:36;2.10;;;1.50;;
7523;SDS011;3803;51.666;7.630;2024-02-26T00:28:57;1.83;;;1.55;;
7523;SDS011;3803;51.666;7.630;2024-02-26T00:29:18;1.80;;;1.60;;
7523;SDS011;3803;51.666;7.630;2024-02-26T00:29:42;1.70;;;1.60;;
7523;SDS011;3803;51.666;7.630;2024-02-26T00:30:06;2.00;;;1.70;;
7523;SDS011;3803;51.666;7.630;2024-02-26T00:30:27;2.17;;;1.65;;
7523;SDS011;3803;51.666;7.630;2024-02-26T00:30:48;2.33;;;1.70;;
7523;SDS011;3803;51.666;7.630;2024-02-26T00:31:09;2.28;;;1.70;;
7523;SDS011;3803;51.666;7.630;2024-02-26T00:31:32;2.03;;;1.70;;
7523;SDS011;3803;51.666;7.630;2024-02-26T00:31:53;1.83;;;1.60;;
7523;SDS011;3803;51.666;7.630;2024-02-26T00:32:14;2.63;;;1.60;;
7523;SDS011;3803;51.666;7.630;2024-02-26T00:32:35;2.57;;;1.50;;
7523;SDS011;3803;51.666;7.630;2024-02-26T00:32:56;2.83;;;1.60;;
7523;SDS011;3803;51.666;7.630;2024-02-26T00:33:17;2.80;;;1.70;;
7523;SDS011;3803;51.666;7.630;2024-02-26T00:33:40;2.50;;;1.60;;
7523;SDS011;3803;51.666;7.630;2024-02-26T00:34:01;1.92;;;1.50;;
7523;SDS011;3803;51.666;7.630;2024-02-26T00:34:25;2.00;;;1.63;;
7523;SDS011;3803;51.666;7.630;2024-02-26T00:34:46;2.08;;;1.63;;
7523;SDS011;3803;51.666;7.630;2024-02-26T00:35:07;1.55;;;1.33;;
7523;SDS011;3803;51.666;7.630;2024-02-26T00:35:29;1.73;;;1.23;;
7523;SDS011;3803;51.666;7.630;2024-02-26T00:35:50;2.17;;;1.47;;
7523;SDS011;3803;51.666;7.630;2024-02-26T00:36:16;2.53;;;1.60;;
7523;SDS011;3803;51.666;7.630;2024-02-26T00:36:41;2.25;;;1.50;;
7523;SDS011;3803;51.666;7.630;2024-02-26T00:37:07;2.38;;;1.70;;
7523;SDS011;3803;51.666;7.630;2024-02-26T00:37:28;1.90;;;1.70;;
7523;SDS011;3803;51.666;7.630;2024-02-26T00:37:51;2.70;;;1.80;;
7523;SDS011;3803;51.666;7.630;2024-02-26T00:38:12;2.42;;;1.52;;
7523;SDS011;3803;51.666;7.630;2024-02-26T00:38:33;2.05;;;1.50;;
7523;SDS011;3803;51.666;7.630;2024-02-26T00:38:54;1.90;;;1.57;;
7523;SDS011;3803;51.666;7.630;2024-02-26T00:39:15;2.30;;;1.70;;
7523;SDS011;3803;51.666;7.630;2024-02-26T00:39:38;2.05;;;1.60;;
7523;SDS011;3803;51.666;7.630;2024-02-26T00:39:58;1.60;;;1.50;;
7523;SDS011;3803;51.666;7.630;2024-02-26T00:40:19;2.28;;;1.63;;
7523;SDS011;3803;51.666;7.630;2024-02-26T00:40:40;2.30;;;1.70;;
7523;SDS011;3803;51.666;7.630;2024-02-26T00:41:07;5.03;;;1.70;;
7523;SDS011;3803;51.666;7.630;2024-02-26T00:41:28;4.20;;;1.48;;
7523;SDS011;3803;51.666;7.630;2024-02-26T00:41:49;4.03;;;1.40;;
7523;SDS011;3803;51.666;7.630;2024-02-26T00:42:14;1.70;;;1.35;;
7523;SDS011;3803;51.666;7.630;2024-02-26T00:42:38;2.45;;;1.52;;
7523;SDS011;3803;51.666;7.630;2024-02-26T00:42:59;2.72;;;1.60;;
7523;SDS011;3803;51.666;7.630;2024-02-26T00:43:28;2.70;;;1.70;;
7523;SDS011;3803;51.666;7.630;2024-02-26T00:43:54;1.90;;;1.50;;
7523;SDS011;3803;51.666;7.630;2024-02-26T00:44:15;1.38;;;1.27;;
7523;SDS011;3803;51.666;7.630;2024-02-26T00:44:36;1.73;;;1.38;;
7523;SDS011;3803;51.666;7.630;2024-02-26T00:44:57;1.75;;;1.20;;
7523;SDS011;3803;51.666;7.630;2024-02-26T00:45:19;1.70;;;1.38;;
7523;SDS011;3803;51.666;7.630;2024-02-26T00:45:39;1.90;;;1.50;;
7523;SDS011;3803;51.666;7.630;2024-02-26T00:46:07;1.63;;;1.38;;
7523;SDS011;3803;51.666;7.630;2024-02-26T00:46:28;1.40;;;1.30;;
7523;SDS011;3803;51.666;7.630;2024-02-26T00:46:49;1.40;;;1.30;;
7523;SDS011;3803;51.666;7.630;2024-02-26T00:47:10;1.60;;;1.50;;
7523;SDS011;3803;51.666;7.630;2024-02-26T00:47:34;1.60;;;1.50;;
7523;SDS011;3803;51.666;7.630;2024-02-26T00:47:57;1.98;;;1.70;;
7523;SDS011;3803;51.666;7.630;2024-02-26T00:48:18;2.10;;;1.60;;
7523;SDS011;3803;51.666;7.630;2024-02-26T00:48:51;1.90;;;1.40;;
7523;SDS011;3803;51.666;7.630;2024-02-26T00:49:19;1.90;;;1.50;;
7523;SDS011;3803;51.666;7.630;2024-02-26T00:49:40;1.45;;;1.35;;
7523;SDS011;3803;51.666;7.630;2024-02-26T00:50:04;1.30;;;1.20;;
7523;SDS011;3803;51.666;7.630;2024-02-26T00:50:25;3.08;;;1.40;;
7523;SDS011;3803;51.666;7.630;2024-02-26T00:50:46;3.15;;;1.38;;
7523;SDS011;3803;51.666;7.630;2024-02-26T00:51:07;3.30;;;1.45;;
7523;SDS011;3803;51.666;7.630;2024-02-26T00:51:28;1.40;;;1.30;;
7523;SDS011;3803;51.666;7.630;2024-02-26T00:51:48;1.65;;;1.50;;
7523;SDS011;3803;51.666;7.630;2024-02-26T00:52:09;1.80;;;1.45;;
7523;SDS011;3803;51.666;7.630;2024-02-26T00:52:30;2.15;;;1.67;;
7523;SDS011;3803;51.666;7.630;2024-02-26T00:52:57;2.63;;;1.65;;
7523;SDS011;3803;51.666;7.630;2024-02-26T00:53:26;3.20;;;1.50;;
7523;SDS011;3803;51.666;7.630;2024-02-26T00:53:51;2.70;;;1.40;;
7523;SDS011;3803;51.666;7.630;2024-02-26T00:54:13;2.38;;;1.30;;
7523;SDS011;3803;51.666;7.630;2024-02-26T00:54:36;1.58;;;1.20;;
7523;SDS011;3803;51.666;7.630;2024-02-26T00:55:08;1.45;;;1.30;;
7523;SDS011;3803;51.666;7.630;2024-02-26T00:55:31;1.50;;;1.40;;
7523;SDS011;3803;51.666;7.630;2024-02-26T00:55:52;2.22;;;1.48;;
7523;SDS011;3803;51.666;7.630;2024-02-26T00:56:13;2.10;;;1.42;;
7523;SDS011;3803;51.666;7.630;2024-02-26T00:56:34;2.70;;;1.50;;
7523;SDS011;3803;51.666;7.630;2024-02-26T00:56:58;3.72;;;1.30;;
7523;SDS011;3803;51.666;7.630;2024-02-26T00:57:19;4.50;;;1.20;;
7523;SDS011;3803;51.666;7.630;2024-02-26T00:57:39;2.45;;;1.30;;
7523;SDS011;3803;51.666;7.630;2024-02-26T00:58:01;2.38;;;1.20;;
7523;SDS011;3803;51.666;7.630;2024-02-26T00:58:21;2.28;;;1.40;;
7523;SDS011;3803;51.666;7.630;2024-02-26T00:58:47;1.80;;;1.20;;
7523;SDS011;3803;51.666;7.630;2024-02-26T00:59:11;1.20;;;1.10;;
7523;SDS011;3803;51.666;7.630;2024-02-26T00:59:31;1.38;;;1.27;;
7523;SDS011;3803;51.666;7.630;2024-02-26T00:59:52;1.52;;;1.42;;
7523;SDS011;3803;51.666;7.630;2024-02-26T01:00:15;1.60;;;1.50;;
7523;SDS011;3803;51.666;7.630;2024-02-26T01:00:36;1.77;;;1.50;;
7523;SDS011;3803;51.666;7.630;2024-02-26T01:00:57;1.52;;;1.42;;
7523;SDS011;3803;51.666;7.630;2024-02-26T01:01:18;1.33;;;1.23;;
7523;SDS011;3803;51.666;7.630;2024-02-26T01:01:39;1.63;;;1.27;;
7523;SDS011;3803;51.666;7.630;2024-02-26T01:02:00;2.00;;;1.30;;
7523;SDS011;3803;51.666;7.630;2024-02-26T01:02:24;2.47;;;1.67;;
7523;SDS011;3803;51.666;7.630;2024-02-26T01:02:47;1.98;;;1.60;;
7523;SDS011;3803;51.666;7.630;2024-02-26T01:03:08;1.70;;;1.60;;
7523;SDS011;3803;51.666;7.630;2024-02-26T01:03:36;1.80;;;1.52;;
7523;SDS011;3803;51.666;7.630;2024-02-26T01:03:59;1.75;;;1.40;;
7523;SDS011;3803;51.666;7.630;2024-02-26T01:04:22;1.73;;;1.30;;
7523;SDS011;3803;51.666;7.630;2024-02-26T01:04:43;1.40;;;1.30;;
7523;SDS011;3803;51.666;7.630;2024-02-26T01:05:05;2.92;;;1.40;;
7523;SDS011;3803;51.666;7.630;2024-02-26T01:05:28;5.47;;;1.55;;
7523;SDS011;3803;51.666;7.630;2024-02-26T01:05:54;5.13;;;1.52;;
7523;SDS011;3803;51.666;7.630;2024-02-26T01:06:15;3.80;;;1.30;;
7523;SDS011;3803;51.666;7.630;2024-02-26T01:06:36;1.60;;;1.20;;
7523;SDS011;3803;51.666;7.630;2024-02-26T01:06:59;1.40;;;1.30;;
7523;SDS011;3803;51.666;7.630;2024-02-26T01:07:20;1.73;;;1.40;;
7523;SDS011;3803;51.666;7.630;2024-02-26T01:07:41;2.53;;;1.60;;
7523;SDS011;3803;51.666;7.630;2024-02-26T01:08:02;3.22;;;1.50;;
7523;SDS011;3803;51.666;7.630;2024-02-26T01:08:23;3.08;;;1.40;;
7523;SDS011;3803;51.666;7.630;2024-02-26T01:08:44;2.15;;;1.20;;
7523;SDS011;3803;51.666;7.630;2024-02-26T01:09:05;1.60;;;1.30;;
7523;SDS011;3803;51.666;7.630;2024-02-26T01:09:29;1.95;;;1.50;;
7523;SDS011;3803;51.666;7.630;2024-02-26T01:09:53;1.93;;;1.50;;
7523;SDS011;3803;51.666;7.630;2024-02-26T01:10:13;1.52;;;1.40;;
7523;SDS011;3803;51.666;7.630;2024-02-26T01:10:34;1.52;;;1.42;;
7523;SDS011;3803;51.666;7.630;2024-02-26T01:11:00;1.70;;;1.50;;
7523;SDS011;3803;51.666;7.630;2024-02-26T01:11:21;2.00;;;1.45;;
7523;SDS011;3803;51.666;7.630;2024-02-26T01:11:44;3.35;;;1.40;;
7523;SDS011;3803;51.666;7.630;2024-02-26T01:12:10;3.38;;;1.50;;
7523;SDS011;3803;51.666;7.630;2024-02-26T01:12:32;3.20;;;1.50;;
7523;SDS011;3803;51.666;7.630;2024-02-26T01:12:54;1.77;;;1.42;;
7523;SDS011;3803;51.666;7.630;2024-02-26T01:13:16;1.50;;;1.30;;
7523;SDS011;3803;51.666;7.630;2024-02-26T01:13:43;1.80;;;1.30;;
7523;SDS011;3803;51.666;7.630;2024-02-26T01:14:04;1.90;;;1.30;;
7523;SDS011;3803;51.666;7.630;2024-02-26T01:14:30;2.10;;;1.30;;
7523;SDS011;3803;51.666;7.630;2024-02-26T01:15:00;1.83;;;1.20;;
7523;SDS011;3803;51.666;7.630;2024-02-26T01:15:35;2.50;;;1.33;;
7523;SDS011;3803;51.666;7.630;2024-02-26T01:16:01;2.70;;;1.30;;
7523;SDS011;3803;51.666;7.630;2024-02-26T01:16:24;2.13;;;1.33;;
7523;SDS011;3803;51.666;7.630;2024-02-26T01:16:45;2.10;;;1.33;;
7523;SDS011;3803;51.666;7.630;2024-02-26T01:17:15;1.50;;;1.30;;
7523;SDS011;3803;51.666;7.630;2024-02-26T01:17:38;1.40;;;1.20;;
7523;SDS011;3803;51.666;7.630;2024-02-26T01:17:59;1.60;;;1.30;;
7523;SDS011;3803;51.666;7.630;2024-02-26T01:18:20;1.30;;;1.20;;
7523;SDS011;3803;51.666;7.630;2024-02-26T01:18:44;1.40;;;1.25;;
7523;SDS011;3803;51.666;7.630;2024-02-26T01:19:04;2.00;;;1.20;;
7523;SDS011;3803;51.666;7.630;2024-02-26T01:19:25;2.72;;;1.40;;
7523;SDS011;3803;51.666;7.630;2024-02-26T01:19:49;3.10;;;1.35;;
7523;SDS011;3803;51.666;7.630;2024-02-26T01:20:14;2.90;;;1.30;;
7523;SDS011;3803;51.666;7.630;2024-02-26T01:20:36;2.30;;;1.40;;
7523;SDS011;3803;51.666;7.630;2024-02-26T01:20:57;2.20;;;1.40;;
7523;SDS011;3803;51.666;7.630;2024-02-26T01:21:18;2.88;;;1.30;;
7523;SDS011;3803;51.666;7.630;2024-02-26T01:21:39;3.00;;;1.23;;
7523;SDS011;3803;51.666;7.630;2024-02-26T01:22:03;2.38;;;1.30;;
7523;SDS011;3803;51.666;7.630;2024-02-26T01:22:26;1.42;;;1.20;;
7523;SDS011;3803;51.666;7.630;2024-02-26T01:22:47;1.30;;;1.20;;
7523;SDS011;3803;51.666;7.630;2024-02-26T01:23:08;1.25;;;1.15;;
7523;SDS011;3803;51.666;7.630;2024-02-26T01:23:31;1.20;;;1.10;;
7523;SDS011;3803;51.666;7.630;2024-02-26T01:23:52;1.30;;;1.20;;
7523;SDS011;3803;51.666;7.630;2024-02-26T01:24:15;1.40;;;1.30;;
7523;SDS011;3803;51.666;7.630;2024-02-26T01:24:37;1.80;;;1.30;;
7523;SDS011;3803;51.666;7.630;2024-02-26T01:24:57;2.00;;;1.50;;
7523;SDS011;3803;51.666;7.630;2024-02-26T01:25:20;2.10;;;1.50;;
7523;SDS011;3803;51.666;7.630;2024-02-26T01:25:44;1.45;;;1.35;;
7523;SDS011;3803;51.666;7.630;2024-02-26T01:26:07;1.40;;;1.30;;
7523;SDS011;3803;51.666;7.630;2024-02-26T01:26:30;1.70;;;1.38;;
7523;SDS011;3803;51.666;7.630;2024-02-26T01:26:56;1.45;;;1.23;;
7523;SDS011;3803;51.666;7.630;2024-02-26T01:27:24;1.73;;;1.40;;
7523;SDS011;3803;51.666;7.630;2024-02-26T01:27:50;1.90;;;1.60;;
7523;SDS011;3803;51.666;7.630;2024-02-26T01:28:11;1.60;;;1.50;;
7523;SDS011;3803;51.666;7.630;2024-02-26T01:28:32;1.42;;;1.33;;
7523;SDS011;3803;51.666;7.630;2024-02-26T01:28:55;1.20;;;1.10;;
7523;SDS011;3803;51.666;7.630;2024-02-26T01:29:16;1.25;;;1.15;;
7523;SDS011;3803;51.666;7.630;2024-02-26T01:29:37;1.40;;;1.30;;
7523;SDS011;3803;51.666;7.630;2024-02-26T01:29:58;1.38;;;1.27;;
7523;SDS011;3803;51.666;7.630;2024-02-26T01:30:19;1.40;;;1.30;;
7523;SDS011;3803;51.666;7.630;2024-02-26T01:30:40;1.63;;;1.40;;
7523;SDS011;3803;51.666;7.630;2024-02-26T01:31:01;2.20;;;1.53;;
7523;SDS011;3803;51.666;7.630;2024-02-26T01:31:25;2.40;;;1.50;;
7523;SDS011;3803;51.666;7.630;2024-02-26T01:31:49;2.00;;;1.53;;
7523;SDS011;3803;51.666;7.630;2024-02-26T01:32:09;1.60;;;1.40;;
7523;SDS011;3803;51.666;7.630;2024-02-26T01:32:30;1.60;;;1.30;;
7523;SDS011;3803;51.666;7.630;2024-02-26T01:32:56;2.10;;;1.10;;
7523;SDS011;3803;51.666;7.630;2024-02-26T01:33:17;2.03;;;1.25;;
7523;SDS011;3803;51.666;7.630;2024-02-26T01:33:38;1.90;;;1.20;;
7523;SDS011;3803;51.666;7.630;2024-02-26T01:33:59;1.90;;;1.40;;
7523;SDS011;3803;51.666;7.630;2024-02-26T01:34:19;1.80;;;1.30;;
7523;SDS011;3803;51.666;7.630;2024-02-26T01:34:44;1.80;;;1.40;;
7523;SDS011;3803;51.666;7.630;2024-02-26T01:35:04;1.60;;;1.37;;
7523;SDS011;3803;51.666;7.630;2024-02-26T01:35:30;1.55;;;1.30;;
7523;SDS011;3803;51.666;7.630;2024-02-26T01:35:53;2.60;;;1.40;;
7523;SDS011;3803;51.666;7.630;2024-02-26T01:36:19;2.80;;;1.50;;
7523;SDS011;3803;51.666;7.630;2024-02-26T01:36:44;1.45;;;1.20;;
7523;SDS011;3803;51.666;7.630;2024-02-26T01:37:04;1.65;;;1.27;;
7523;SDS011;3803;51.666;7.630;2024-02-26T01:37:25;2.00;;;1.40;;
7523;SDS011;3803;51.666;7.630;2024-02-26T01:37:46;2.20;;;1.60;;
7523;SDS011;3803;51.666;7.630;2024-02-26T01:38:07;1.60;;;1.50;;
7523;SDS011;3803;51.666;7.630;2024-02-26T01:38:30;1.85;;;1.40;;
7523;SDS011;3803;51.666;7.630;2024-02-26T01:38:50;1.93;;;1.30;;
7523;SDS011;3803;51.666;7.630;2024-02-26T01:39:11;2.00;;;1.40;;
7523;SDS011;3803;51.666;7.630;2024-02-26T01:39:32;1.52;;;1.35;;
7523;SDS011;3803;51.666;7.630;2024-02-26T01:39:54;1.33;;;1.23;;
7523;SDS011;3803;51.666;7.630;2024-02-26T01:40:15;1.40;;;1.30;;
7523;SDS011;3803;51.666;7.630;2024-02-26T01:40:39;1.50;;;1.33;;
7523;SDS011;3803;51.666;7.630;2024-02-26T01:41:00;2.10;;;1.55;;
7523;SDS011;3803;51.666;7.630;2024-02-26T01:41:24;1.85;;;1.50;;
7523;SDS011;3803;51.666;7.630;2024-02-26T01:41:45;1.50;;;1.30;;
7523;SDS011;3803;51.666;7.630;2024-02-26T01:42:06;1.30;;;1.20;;
7523;SDS011;3803;51.666;7.630;2024-02-26T01:42:32;1.60;;;1.30;;
7523;SDS011;3803;51.666;7.630;2024-02-26T01:42:58;2.83;;;1.48;;
7523;SDS011;3803;51.666;7.630;2024-02-26T01:43:20;3.10;;;1.48;;
7523;SDS011;3803;51.666;7.630;2024-02-26T01:43:41;2.80;;;1.33;;
7523;SDS011;3803;51.666;7.630;2024-02-26T01:44:13;1.60;;;1.33;;
7523;SDS011;3803;51.666;7.630;2024-02-26T01:44:34;3.08;;;1.52;;
7523;SDS011;3803;51.666;7.630;2024-02-26T01:44:59;3.20;;;1.60;;
7523;SDS011;3803;51.666;7.630;2024-02-26T01:45:20;2.50;;;1.40;;
7523;SDS011;3803;51.666;7.630;2024-02-26T01:45:49;1.75;;;1.20;;
7523;SDS011;3803;51.666;7.630;2024-02-26T01:46:10;1.65;;;1.15;;
7523;SDS011;3803;51.666;7.630;2024-02-26T01:46:34;1.60;;;1.30;;
7523;SDS011;3803;51.666;7.630;2024-02-26T01:47:01;1.13;;;1.02;;
7523;SDS011;3803;51.666;7.630;2024-02-26T01:47:25;1.10;;;1.00;;
7523;SDS011;3803;51.666;7.630;2024-02-26T01:47:49;1.13;;;1.02;;
7523;SDS011;3803;51.666;7.630;2024-02-26T01:48:14;1.20;;;1.10;;
7523;SDS011;3803;51.666;7.630;2024-02-26T01:48:35;1.25;;;1.15;;
7523;SDS011;3803;51.666;7.630;2024-02-26T01:49:02;1.20;;;1.10;;
7523;SDS011;3803;51.666;7.630;2024-02-26T01:49:23;1.55;;;1.38;;
7523;SDS011;3803;51.666;7.630;2024-02-26T01:49:47;4.40;;;1.70;;
7523;SDS011;3803;51.666;7.630;2024-02-26T01:50:08;4.72;;;1.70;;
7523;SDS011;3803;51.666;7.630;2024-02-26T01:50:29;2.42;;;1.40;;
7523;SDS011;3803;51.666;7.630;2024-02-26T01:50:52;1.40;;;1.30;;
7523;SDS011;3803;51.666;7.630;2024-02-26T01:51:18;1.40;;;1.30;;
7523;SDS011;3803;51.666;7.630;2024-02-26T01:51:39;1.30;;;1.20;;
7523;SDS011;3803;51.666;7.630;2024-02-26T01:52:02;1.33;;;1.20;;
7523;SDS011;3803;51.666;7.630;2024-02-26T01:52:24;1.60;;;1.35;;
7523;SDS011;3803;51.666;7.630;2024-02-26T01:52:46;1.40;;;1.30;;
7523;SDS011;3803;51.666;7.630;2024-02-26T01:53:07;1.45;;;1.35;;
7523;SDS011;3803;51.666;7.630;2024-02-26T01:53:29;1.40;;;1.30;;
7523;SDS011;3803;51.666;7.630;2024-02-26T01:53:51;1.45;;;1.23;;
7523;SDS011;3803;51.666;7.630;2024-02-26T01:54:12;3.47;;;1.30;;
7523;SDS011;3803;51.666;7.630;2024-02-26T01:54:36;3.30;;;1.20;;
7523;SDS011;3803;51.666;7.630;2024-02-26T01:54:58;1.83;;;1.20;;
7523;SDS011;3803;51.666;7.630;2024-02-26T01:55:22;1.60;;;1.30;;
7523;SDS011;3803;51.666;7.630;2024-02-26T01:55:44;2.80;;;1.48;;
7523;SDS011;3803;51.666;7.630;2024-02-26T01:56:05;4.70;;;1.40;;
7523;SDS011;3803;51.666;7.630;2024-02-26T01:56:29;3.70;;;1.30;;
7523;SDS011;3803;51.666;7.630;2024-02-26T01:56:58;3.83;;;1.30;;
7523;SDS011;3803;51.666;7.630;2024-02-26T01:57:19;1.70;;;1.30;;
7523;SDS011;3803;51.666;7.630;2024-02-26T01:57:43;1.92;;;1.25;;
7523;SDS011;3803;51.666;7.630;2024-02-26T01:58:08;1.80;;;1.38;;
7523;SDS011;3803;51.666;7.630;2024-02-26T01:58:29;3.80;;;1.50;;
7523;SDS011;3803;51.666;7.630;2024-02-26T01:58:54;3.85;;;1.60;;
7523;SDS011;3803;51.666;7.630;2024-02-26T01:59:18;3.20;;;1.52;;
7523;SDS011;3803;51.666;7.630;2024-02-26T01:59:39;1.80;;;1.45;;
7523;SDS011;3803;51.666;7.630;2024-02-26T02:00:01;1.58;;;1.48;;
7523;SDS011;3803;51.666;7.630;2024-02-26T02:00:26;1.60;;;1.50;;
7523;SDS011;3803;51.666;7.630;2024-02-26T02:00:55;1.80;;;1.40;;
7523;SDS011;3803;51.666;7.630;2024-02-26T02:01:17;2.20;;;1.40;;
7523;SDS011;3803;51.666;7.630;2024-02-26T02:01:42;1.85;;;1.30;;
7523;SDS011;3803;51.666;7.630;2024-02-26T02:02:08;2.50;;;1.33;;
7523;SDS011;3803;51.666;7.630;2024-02-26T02:02:30;2.83;;;1.48;;
7523;SDS011;3803;51.666;7.630;2024-02-26T02:02:53;3.00;;;1.58;;
7523;SDS011;3803;51.666;7.630;2024-02-26T02:03:15;1.50;;;1.40;;
7523;SDS011;3803;51.666;7.630;2024-02-26T02:03:39;1.42;;;1.33;;
7523;SDS011;3803;51.666;7.630;2024-02-26T02:04:02;1.30;;;1.17;;
7523;SDS011;3803;51.666;7.630;2024-02-26T02:04:23;1.25;;;1.10;;
7523;SDS011;3803;51.666;7.630;2024-02-26T02:04:44;1.30;;;1.20;;
7523;SDS011;3803;51.666;7.630;2024-02-26T02:05:08;1.90;;;1.40;;
7523;SDS011;3803;51.666;7.630;2024-02-26T02:05:29;1.90;;;1.40;;
7523;SDS011;3803;51.666;7.630;2024-02-26T02:05:51;1.80;;;1.30;;
7523;SDS011;3803;51.666;7.630;2024-02-26T02:06:12;1.30;;;1.20;;
7523;SDS011;3803;51.666;7.630;2024-02-26T02:06:33;1.20;;;1.10;;
7523;SDS011;3803;51.666;7.630;2024-02-26T02:06:58;1.20;;;1.10;;
7523;SDS011;3803;51.666;7.630;2024-02-26T02:07:22;1.15;;;1.05;;
7523;SDS011;3803;51.666;7.630;2024-02-26T02:07:47;1.45;;;1.20;;
7523;SDS011;3803;51.666;7.630;2024-02-26T02:08:10;1.60;;;1.30;;
7523;SDS011;3803;51.666;7.630;2024-02-26T02:08:34;1.40;;;1.10;;
7523;SDS011;3803;51.666;7.630;2024-02-26T02:08:56;2.50;;;1.20;;
7523;SDS011;3803;51.666;7.630;2024-02-26T02:09:27;2.80;;;1.50;;
7523;SDS011;3803;51.666;7.630;2024-02-26T02:09:48;3.28;;;1.50;;
7523;SDS011;3803;51.666;7.630;2024-02-26T02:10:09;2.05;;;1.50;;
7523;SDS011;3803;51.666;7.630;2024-02-26T02:10:32;1.80;;;1.30;;
7523;SDS011;3803;51.666;7.630;2024-02-26T02:10:53;1.38;;;1.23;;
7523;SDS011;3803;51.666;7.630;2024-02-26T02:11:14;1.40;;;1.30;;
7523;SDS011;3803;51.666;7.630;2024-02-26T02:11:35;1.40;;;1.30;;
7523;SDS011;3803;51.666;7.630;2024-02-26T02:11:56;1.67;;;1.30;;
7523;SDS011;3803;51.666;7.630;2024-02-26T02:12:18;1.67;;;1.20;;
7523;SDS011;3803;51.666;7.630;2024-02-26T02:12:40;1.70;;;1.10;;
7523;SDS011;3803;51.666;7.630;2024-02-26T02:13:01;1.38;;;1.20;;
7523;SDS011;3803;51.666;7.630;2024-02-26T02:13:22;1.40;;;1.20;;
7523;SDS011;3803;51.666;7.630;2024-02-26T02:13:42;2.00;;;1.40;;
7523;SDS011;3803;51.666;7.630;2024-02-26T02:14:03;1.67;;;1.30;;
7523;SDS011;3803;51.666;7.630;2024-02-26T02:14:24;1.70;;;1.30;;
7523;SDS011;3803;51.666;7.630;2024-02-26T02:14:48;1.85;;;1.30;;
7523;SDS011;3803;51.666;7.630;2024-02-26T02:15:08;1.90;;;1.30;;
7523;SDS011;3803;51.666;7.630;2024-02-26T02:15:29;2.50;;;1.40;;
7523;SDS011;3803;51.666;7.630;2024-02-26T02:15:52;1.80;;;1.30;;
7523;SDS011;3803;51.666;7.630;2024-02-26T02:16:13;1.38;;;1.27;;
7523;SDS011;3803;51.666;7.630;2024-02-26T02:16:37;1.60;;;1.30;;
7523;SDS011;3803;51.666;7.630;2024-02-26T02:16:58;2.00;;;1.40;;
7523;SDS011;3803;51.666;7.630;2024-02-26T02:17:19;2.70;;;1.50;;
7523;SDS011;3803;51.666;7.630;2024-02-26T02:17:43;2.28;;;1.35;;
7523;SDS011;3803;51.666;7.630;2024-02-26T02:18:04;2.75;;;1.30;;
7523;SDS011;3803;51.666;7.630;2024-02-26T02:18:28;2.75;;;1.20;;
7523;SDS011;3803;51.666;7.630;2024-02-26T02:18:48;2.38;;;1.17;;
7523;SDS011;3803;51.666;7.630;2024-02-26T02:19:09;2.17;;;1.20;;
7523;SDS011;3803;51.666;7.630;2024-02-26T02:19:33;1.60;;;1.30;;
7523;SDS011;3803;51.666;7.630;2024-02-26T02:19:54;2.07;;;1.43;;
7523;SDS011;3803;51.666;7.630;2024-02-26T02:20:15;1.63;;;1.40;;
7523;SDS011;3803;51.666;7.630;2024-02-26T02:20:42;1.45;;;1.20;;
7523;SDS011;3803;51.666;7.630;2024-02-26T02:21:03;1.40;;;1.20;;
7523;SDS011;3803;51.666;7.630;2024-02-26T02:21:27;1.30;;;1.20;;
7523;SDS011;3803;51.666;7.630;2024-02-26T02:21:47;1.40;;;1.20;;
7523;SDS011;3803;51.666;7.630;2024-02-26T02:22:08;1.50;;;1.40;;
7523;SDS011;3803;51.666;7.630;2024-02-26T02:22:29;1.47;;;1.30;;
7523;SDS011;3803;51.666;7.630;2024-02-26T02:22:52;1.60;;;1.40;;
7523;SDS011;3803;51.666;7.630;2024-02-26T02:23:13;1.50;;;1.30;;
7523;SDS011;3803;51.666;7.630;2024-02-26T02:23:34;1.40;;;1.27;;
7523;SDS011;3803;51.666;7.630;2024-02-26T02:23:55;1.55;;;1.25;;
7523;SDS011;3803;51.666;7.630;2024-02-26T02:24:16;1.40;;;1.20;;